createdAt,value
2018-04-18T00:01:59.010Z,11.00
2018-04-18T00:04:28.051Z,11.00
2018-04-18T00:06:56.370Z,11.10
2018-04-18T00:09:25.622Z,11.00
2018-04-18T00:11:53.871Z,11.00
2018-04-18T00:14:22.169Z,11.00
2018-04-18T00:16:50.432Z,10.90
2018-04-18T00:19:18.713Z,10.90
2018-04-18T00:21:46.998Z,10.90
2018-04-18T00:24:15.254Z,10.90
2018-04-18T00:26:43.610Z,10.80
2018-04-18T00:29:11.897Z,10.80
2018-04-18T00:31:40.191Z,10.80
2018-04-18T00:34:08.472Z,10.80
2018-04-18T00:36:36.763Z,10.80
2018-04-18T00:39:05.806Z,10.80
2018-04-18T00:41:34.101Z,10.70
2018-04-18T00:44:02.414Z,10.80
2018-04-18T00:46:31.454Z,10.70
2018-04-18T00:48:59.760Z,10.70
2018-04-18T00:51:28.039Z,10.70
2018-04-18T00:53:56.331Z,10.70
2018-04-18T00:56:24.624Z,10.70
2018-04-18T00:58:53.691Z,10.70
2018-04-18T01:01:21.963Z,10.70
2018-04-18T01:03:50.298Z,10.70
2018-04-18T01:06:18.568Z,10.60
2018-04-18T01:08:46.967Z,10.60
2018-04-18T01:11:15.274Z,10.60
2018-04-18T01:13:43.576Z,10.50
2018-04-18T01:16:12.697Z,10.50
2018-04-18T01:18:40.977Z,10.40
2018-04-18T01:21:09.286Z,10.40
2018-04-18T01:23:37.568Z,10.40
2018-04-18T01:26:05.862Z,10.30
2018-04-18T01:28:34.136Z,10.30
2018-04-18T01:31:02.456Z,10.30
2018-04-18T01:33:31.483Z,10.30
2018-04-18T01:35:59.769Z,10.20
2018-04-18T01:38:28.091Z,10.30
2018-04-18T01:40:57.124Z,10.20
2018-04-18T01:43:25.407Z,10.20
2018-04-18T01:45:53.678Z,10.20
2018-04-18T01:48:22.129Z,10.20
2018-04-18T01:50:51.189Z,10.10
2018-04-18T01:53:19.581Z,10.10
2018-04-18T01:55:47.899Z,10.20
2018-04-18T01:58:16.227Z,10.10
2018-04-18T02:00:44.530Z,10.10
2018-04-18T02:03:12.817Z,10.10
2018-04-18T02:05:41.112Z,10.10
2018-04-18T02:08:10.155Z,10.10
2018-04-18T02:10:38.459Z,10.10
2018-04-18T02:13:06.762Z,10.10
2018-04-18T02:15:35.829Z,10.10
2018-04-18T02:18:04.101Z,10.00
2018-04-18T02:20:36.078Z,10.00
2018-04-18T02:23:04.359Z,10.00
2018-04-18T02:25:32.649Z,10.00
2018-04-18T02:28:00.970Z,10.00
2018-04-18T02:30:29.241Z,10.00
2018-04-18T02:32:57.547Z,10.00
2018-04-18T02:35:25.826Z,9.90
2018-04-18T02:37:54.101Z,9.90
2018-04-18T02:40:22.377Z,9.90
2018-04-18T02:42:50.694Z,9.90
2018-04-18T02:45:19.719Z,9.80
2018-04-18T02:47:47.988Z,9.80
2018-04-18T02:50:16.295Z,9.80
2018-04-18T02:52:44.572Z,9.80
2018-04-18T02:55:12.872Z,9.80
2018-04-18T02:57:41.139Z,9.80
2018-04-18T03:00:09.509Z,9.80
2018-04-18T03:02:37.799Z,9.80
2018-04-18T03:05:06.085Z,9.80
2018-04-18T03:07:34.364Z,9.70
2018-04-18T03:10:02.659Z,9.70
2018-04-18T03:12:30.936Z,9.70
2018-04-18T03:14:59.199Z,9.70
2018-04-18T03:17:27.526Z,9.70
2018-04-18T03:19:55.767Z,9.70
2018-04-18T03:22:24.058Z,9.70
2018-04-18T03:24:52.315Z,9.70
2018-04-18T03:27:20.648Z,9.60
2018-04-18T03:29:48.904Z,9.60
2018-04-18T03:32:17.949Z,9.60
2018-04-18T03:34:46.247Z,9.60
2018-04-18T03:37:14.517Z,9.60
2018-04-18T03:39:42.802Z,9.50
2018-04-18T03:42:11.072Z,9.50
2018-04-18T03:44:39.370Z,9.50
2018-04-18T03:47:07.615Z,9.50
2018-04-18T03:49:35.951Z,9.40
2018-04-18T03:52:04.214Z,9.40
2018-04-18T03:54:32.515Z,9.40
2018-04-18T03:57:00.778Z,9.40
2018-04-18T03:59:29.073Z,9.40
2018-04-18T04:01:57.418Z,9.30
2018-04-18T04:04:25.693Z,9.30
2018-04-18T04:06:53.997Z,9.30
2018-04-18T04:09:23.441Z,9.30
2018-04-18T04:11:51.754Z,9.30
2018-04-18T04:14:20.838Z,9.30
2018-04-18T04:17:00.886Z,9.30
2018-04-18T04:19:41.087Z,9.30
2018-04-18T04:22:21.321Z,9.30
2018-04-18T04:24:49.656Z,9.30
2018-04-18T04:27:18.042Z,9.30
2018-04-18T04:29:47.203Z,9.30
2018-04-18T04:32:15.459Z,9.30
2018-04-18T04:34:44.528Z,9.30
2018-04-18T04:37:12.806Z,9.30
2018-04-18T04:39:41.140Z,9.30
2018-04-18T04:42:09.437Z,9.30
2018-04-18T04:44:37.695Z,9.40
2018-04-18T04:47:05.985Z,9.40
2018-04-18T04:49:34.274Z,9.40
2018-04-18T04:52:02.581Z,9.40
2018-04-18T04:54:30.842Z,9.40
2018-04-18T04:56:59.907Z,9.50
2018-04-18T04:59:28.188Z,9.50
2018-04-18T05:01:56.456Z,9.50
2018-04-18T05:04:24.754Z,9.50
2018-04-18T05:06:53.019Z,9.60
2018-04-18T05:09:21.315Z,9.60
2018-04-18T05:11:49.596Z,9.70
2018-04-18T05:14:17.879Z,9.70
2018-04-18T05:16:46.164Z,9.80
2018-04-18T05:19:14.533Z,9.80
2018-04-18T05:21:42.801Z,9.90
2018-04-18T05:24:11.141Z,9.90
2018-04-18T05:26:40.179Z,10.00
2018-04-18T05:29:08.511Z,10.00
2018-04-18T05:31:37.615Z,10.10
2018-04-18T05:34:06.658Z,10.20
2018-04-18T05:36:34.985Z,10.10
2018-04-18T05:39:04.027Z,10.30
2018-04-18T05:41:33.112Z,10.40
2018-04-18T05:44:01.374Z,10.40
2018-04-18T05:46:30.659Z,10.40
2018-04-18T05:48:59.704Z,10.60
2018-04-18T05:51:28.026Z,10.60
2018-04-18T05:53:57.054Z,10.70
2018-04-18T05:56:25.348Z,10.70
2018-04-18T05:58:53.675Z,10.80
2018-04-18T06:01:22.725Z,11.00
2018-04-18T06:03:51.028Z,10.90
2018-04-18T06:06:19.322Z,11.10
2018-04-18T06:08:47.614Z,11.10
2018-04-18T06:11:16.720Z,11.20
2018-04-18T06:13:44.989Z,11.20
2018-04-18T06:16:13.287Z,11.30
2018-04-18T06:18:42.325Z,11.50
2018-04-18T06:21:10.628Z,11.50
2018-04-18T06:23:38.942Z,11.60
2018-04-18T06:26:07.231Z,11.70
2018-04-18T06:28:36.269Z,11.80
2018-04-18T06:31:04.569Z,11.80
2018-04-18T06:33:33.620Z,12.00
2018-04-18T06:36:01.955Z,12.00
2018-04-18T06:38:31.080Z,12.20
2018-04-18T06:40:59.422Z,12.20
2018-04-18T06:43:27.771Z,12.30
2018-04-18T06:45:56.261Z,12.40
2018-04-18T06:48:24.528Z,12.50
2018-04-18T06:50:52.811Z,12.60
2018-04-18T06:53:21.896Z,12.80
2018-04-18T06:55:50.309Z,12.80
2018-04-18T06:58:18.619Z,12.90
2018-04-18T07:00:46.904Z,13.10
2018-04-18T07:03:15.217Z,13.10
2018-04-18T07:05:43.524Z,13.30
2018-04-18T07:08:11.906Z,13.40
2018-04-18T07:10:40.265Z,13.50
2018-04-18T07:13:08.531Z,13.60
2018-04-18T07:15:36.853Z,13.70
2018-04-18T07:18:05.893Z,14.00
2018-04-18T07:20:34.211Z,14.00
2018-04-18T07:23:02.497Z,14.10
2018-04-18T07:25:30.826Z,14.20
2018-04-18T07:27:59.105Z,14.30
2018-04-18T07:30:27.439Z,14.40
2018-04-18T07:32:56.490Z,14.70
2018-04-18T07:35:24.770Z,14.60
2018-04-18T07:37:53.085Z,14.80
2018-04-18T07:40:21.387Z,14.90
2018-04-18T07:42:49.695Z,15.00
2018-04-18T07:45:18.007Z,15.20
2018-04-18T07:47:46.355Z,15.30
2018-04-18T07:50:14.636Z,15.40
2018-04-18T07:52:43.590Z,15.50
2018-04-18T07:55:13.240Z,15.70
2018-04-18T07:57:41.579Z,15.70
2018-04-18T08:00:09.927Z,15.80
2018-04-18T08:02:38.242Z,16.00
2018-04-18T08:05:06.658Z,16.10
2018-04-18T08:07:34.914Z,16.20
2018-04-18T08:10:03.357Z,16.40
2018-04-18T08:12:32.412Z,16.60
2018-04-18T08:15:00.733Z,16.60
2018-04-18T08:17:29.773Z,16.80
2018-04-18T08:19:58.131Z,16.80
2018-04-18T08:22:26.625Z,16.90
2018-04-18T08:24:54.994Z,17.10
2018-04-18T08:27:24.061Z,17.30
2018-04-18T08:29:52.355Z,17.30
2018-04-18T08:32:21.423Z,17.60
2018-04-18T08:34:49.715Z,17.60
2018-04-18T08:37:18.869Z,17.90
2018-04-18T08:39:47.175Z,17.90
2018-04-18T08:42:15.512Z,18.10
2018-04-18T08:44:43.879Z,18.20
2018-04-18T08:47:12.147Z,18.30
2018-04-18T08:49:40.454Z,18.40
2018-04-18T08:52:08.742Z,18.60
2018-04-18T08:54:37.073Z,18.60
2018-04-18T08:57:05.366Z,18.80
2018-04-18T08:59:33.768Z,18.90
2018-04-18T09:02:02.082Z,19.00
2018-04-18T09:04:30.606Z,19.20
2018-04-18T09:06:58.947Z,19.30
2018-04-18T09:09:27.352Z,19.50
2018-04-18T09:11:55.872Z,19.70
2018-04-18T09:14:24.190Z,19.80
2018-04-18T09:16:52.492Z,19.90
2018-04-18T09:19:21.620Z,20.20
2018-04-18T09:21:49.970Z,20.20
2018-04-18T09:24:18.275Z,20.30
2018-04-18T09:26:46.666Z,20.40
2018-04-18T09:29:14.956Z,20.50
2018-04-18T09:31:43.309Z,20.60
2018-04-18T09:34:11.718Z,20.70
2018-04-18T09:36:40.208Z,20.80
2018-04-18T09:39:08.579Z,20.90
2018-04-18T09:41:36.891Z,21.00
2018-04-18T09:44:05.954Z,21.20
2018-04-18T09:46:34.271Z,21.10
2018-04-18T09:49:02.559Z,21.60
2018-04-18T09:51:32.621Z,21.50
2018-04-18T09:54:00.916Z,21.40
2018-04-18T09:56:29.199Z,21.60
2018-04-18T09:58:58.609Z,21.70
2018-04-18T10:01:32.518Z,21.80
2018-04-18T10:04:06.603Z,21.80
2018-04-18T10:06:34.898Z,21.90
2018-04-18T10:09:05.966Z,22.00
2018-04-18T10:11:35.041Z,22.20
2018-04-18T10:14:03.319Z,22.10
2018-04-18T10:16:33.034Z,22.40
2018-04-18T10:19:01.346Z,22.30
2018-04-18T10:21:29.707Z,22.50
2018-04-18T10:23:57.985Z,22.60
2018-04-18T10:26:26.284Z,22.70
2018-04-18T10:28:55.459Z,22.90
2018-04-18T10:31:23.836Z,22.80
2018-04-18T10:33:52.143Z,22.90
2018-04-18T10:36:20.493Z,23.00
2018-04-18T10:38:49.063Z,23.10
2018-04-18T10:41:18.113Z,23.20
2018-04-18T10:43:46.433Z,23.20
2018-04-18T10:46:14.705Z,23.30
2018-04-18T10:48:43.074Z,23.40
2018-04-18T10:51:11.354Z,23.50
2018-04-18T10:53:39.752Z,23.50
2018-04-18T10:56:08.016Z,23.60
2018-04-18T10:58:36.353Z,23.60
2018-04-18T11:01:04.643Z,23.70
2018-04-18T11:03:32.970Z,23.70
2018-04-18T11:06:01.244Z,23.80
2018-04-18T11:08:29.561Z,23.90
2018-04-18T11:10:57.857Z,23.90
2018-04-18T11:13:26.166Z,24.00
2018-04-18T11:15:54.569Z,24.00
2018-04-18T11:18:23.795Z,24.00
2018-04-18T11:20:53.503Z,24.00
2018-04-18T11:23:21.766Z,24.00
2018-04-18T11:25:50.081Z,24.20
2018-04-18T11:28:18.370Z,24.30
2018-04-18T11:30:46.708Z,24.60
2018-04-18T11:33:15.018Z,25.10
2018-04-18T11:35:43.330Z,25.80
2018-04-18T11:38:11.662Z,26.80
2018-04-18T11:40:39.943Z,27.90
2018-04-18T11:43:08.234Z,28.80
2018-04-18T11:45:36.887Z,29.70
2018-04-18T11:48:05.173Z,30.40
2018-04-18T11:50:33.644Z,31.00
2018-04-18T11:53:02.022Z,31.70
2018-04-18T11:55:30.291Z,32.40
2018-04-18T11:57:58.556Z,33.20
2018-04-18T12:00:27.603Z,34.00
2018-04-18T12:02:55.908Z,34.80
2018-04-18T12:05:24.227Z,35.70
2018-04-18T12:07:52.683Z,36.60
2018-04-18T12:10:20.993Z,37.50
2018-04-18T12:12:50.056Z,39.40
2018-04-18T12:15:18.334Z,39.30
2018-04-18T12:17:46.619Z,40.20
2018-04-18T12:20:14.923Z,40.90
2018-04-18T12:22:43.213Z,41.50
2018-04-18T12:25:11.729Z,41.90
2018-04-18T12:27:40.094Z,42.40
2018-04-18T12:30:08.369Z,42.80
2018-04-18T12:32:36.848Z,43.20
2018-04-18T12:35:05.117Z,43.40
2018-04-18T12:37:39.932Z,43.40
2018-04-18T12:40:08.347Z,43.40
2018-04-18T12:42:36.652Z,43.20
2018-04-18T12:45:04.965Z,43.10
2018-04-18T12:47:34.460Z,43.00
2018-04-18T12:50:02.869Z,42.90
2018-04-18T12:52:31.181Z,42.90
2018-04-18T12:55:12.851Z,43.00
2018-04-18T12:57:41.417Z,42.90
2018-04-18T13:00:10.209Z,42.90
2018-04-18T13:02:38.491Z,43.00
2018-04-18T13:05:07.562Z,43.20
2018-04-18T13:07:35.989Z,43.10
2018-04-18T13:10:04.502Z,43.10
2018-04-18T13:12:32.945Z,43.20
2018-04-18T13:15:02.418Z,43.40
2018-04-18T13:17:30.945Z,43.20
2018-04-18T13:19:59.399Z,43.20
2018-04-18T13:22:28.706Z,42.60
2018-04-18T13:24:57.410Z,42.60
2018-04-18T13:27:25.888Z,42.50
2018-04-18T13:29:54.218Z,42.60
2018-04-18T13:32:22.514Z,42.90
2018-04-18T13:34:50.799Z,43.00
2018-04-18T13:37:20.880Z,43.20
2018-04-18T13:39:50.586Z,43.30
2018-04-18T13:42:19.204Z,43.20
2018-04-18T13:44:47.494Z,42.90
2018-04-18T13:47:15.843Z,42.90
2018-04-18T13:49:44.173Z,43.00
2018-04-18T13:52:13.220Z,43.30
2018-04-18T13:54:41.565Z,43.30
2018-04-18T13:57:09.870Z,43.60
2018-04-18T13:59:38.757Z,43.70
2018-04-18T14:02:07.174Z,43.50
2018-04-18T14:04:35.471Z,43.50
2018-04-18T14:07:03.769Z,43.70
2018-04-18T14:09:32.102Z,43.80
2018-04-18T14:12:01.213Z,43.70
2018-04-18T14:14:29.476Z,43.60
2018-04-18T14:16:57.794Z,43.50
2018-04-18T14:19:26.049Z,43.40
2018-04-18T14:21:54.736Z,43.50
2018-04-18T14:24:23.696Z,43.60
2018-04-18T14:26:51.987Z,43.40
2018-04-18T14:29:21.058Z,42.70
2018-04-18T14:31:50.055Z,42.60
2018-04-18T14:34:18.369Z,42.20
2018-04-18T14:36:46.716Z,42.10
2018-04-18T14:39:16.390Z,42.30
2018-04-18T14:41:45.247Z,42.30
2018-04-18T14:44:13.827Z,42.40
2018-04-18T14:46:42.702Z,42.40
2018-04-18T14:49:11.691Z,42.60
2018-04-18T14:51:40.456Z,42.50
2018-04-18T14:54:09.059Z,42.30
2018-04-18T14:56:37.441Z,42.30
2018-04-18T14:59:05.714Z,42.10
2018-04-18T15:01:34.012Z,41.90
2018-04-18T15:04:02.303Z,41.60
2018-04-18T15:06:30.630Z,41.40
2018-04-18T15:08:58.885Z,41.20
2018-04-18T15:14:08.503Z,40.90
2018-04-18T15:16:36.779Z,40.70
2018-04-18T15:19:05.105Z,40.50
2018-04-18T15:21:34.155Z,40.40
2018-04-18T15:24:02.433Z,40.40
2018-04-18T15:26:30.749Z,40.30
2018-04-18T15:28:59.016Z,40.20
2018-04-18T15:31:27.361Z,40.10
2018-04-18T15:33:56.508Z,39.80
2018-04-18T15:36:24.949Z,39.70
2018-04-18T15:38:53.546Z,39.40
2018-04-18T15:41:22.174Z,39.40
2018-04-18T15:43:50.626Z,39.40
2018-04-18T15:46:18.927Z,39.50
2018-04-18T15:48:47.956Z,39.60
2018-04-18T15:51:16.248Z,39.60
2018-04-18T15:53:44.582Z,39.60
2018-04-18T15:56:12.902Z,39.60
2018-04-18T15:58:42.013Z,39.60
2018-04-18T16:01:10.295Z,39.60
2018-04-18T16:03:38.559Z,39.30
2018-04-18T16:06:07.754Z,39.10
2018-04-18T16:08:36.287Z,38.90
2018-04-18T16:11:04.566Z,38.60
2018-04-18T16:13:33.620Z,38.30
2018-04-18T16:16:01.985Z,38.20
2018-04-18T16:18:30.303Z,38.30
2018-04-18T16:20:59.758Z,38.20
2018-04-18T16:23:28.135Z,38.10
2018-04-18T16:25:57.552Z,38.00
2018-04-18T16:28:26.238Z,37.90
2018-04-18T16:30:56.865Z,37.60
2018-04-18T16:33:26.354Z,36.80
2018-04-18T16:35:55.685Z,36.50
2018-04-18T16:38:24.207Z,36.40
2018-04-18T16:40:52.595Z,36.10
2018-04-18T16:43:22.075Z,35.30
2018-04-18T16:45:50.424Z,35.30
2018-04-18T16:48:19.602Z,34.50
2018-04-18T16:50:49.121Z,34.40
2018-04-18T16:53:18.592Z,34.10
2018-04-18T16:55:47.071Z,33.70
2018-04-18T16:58:15.761Z,33.30
2018-04-18T17:00:46.445Z,33.00
2018-04-18T17:03:15.795Z,32.70
2018-04-18T17:05:44.102Z,32.60
2018-04-18T17:08:12.393Z,32.60
2018-04-18T17:10:40.816Z,32.40
2018-04-18T17:13:09.161Z,32.10
2018-04-18T17:15:38.100Z,31.90
2018-04-18T17:18:07.251Z,31.50
2018-04-18T17:20:37.667Z,31.50
2018-04-18T17:23:06.839Z,30.90
2018-04-18T17:25:35.911Z,30.60
2018-04-18T17:28:04.255Z,30.60
2018-04-18T17:30:32.564Z,30.30
2018-04-18T17:33:00.957Z,29.80
2018-04-18T17:35:29.312Z,29.40
2018-04-18T17:37:57.641Z,29.00
2018-04-18T17:40:26.681Z,28.20
2018-04-18T17:42:54.999Z,28.10
2018-04-18T17:45:23.351Z,27.80
2018-04-18T17:47:51.629Z,27.50
2018-04-18T17:50:19.909Z,27.20
2018-04-18T17:52:48.184Z,26.90
2018-04-18T17:57:58.055Z,26.30
2018-04-18T18:00:32.248Z,26.10
2018-04-18T18:03:00.624Z,25.80
2018-04-18T18:05:30.310Z,25.50
2018-04-18T18:07:58.636Z,25.20
2018-04-18T18:10:27.338Z,25.00
2018-04-18T18:12:56.793Z,24.80
2018-04-18T18:15:25.087Z,24.60
2018-04-18T18:17:53.416Z,24.40
2018-04-18T18:20:23.496Z,23.90
2018-04-18T18:22:52.179Z,23.90
2018-04-18T18:25:20.512Z,23.70
2018-04-18T18:27:50.122Z,23.50
2018-04-18T18:30:18.533Z,23.30
2018-04-18T18:32:46.892Z,23.10
2018-04-18T18:35:16.833Z,22.70
2018-04-18T18:37:45.211Z,22.70
2018-04-18T18:40:14.286Z,22.40
2018-04-18T18:42:43.392Z,22.40
2018-04-18T18:45:11.716Z,22.30
2018-04-18T18:47:40.110Z,22.10
2018-04-18T18:50:09.914Z,21.80
2018-04-18T18:52:38.321Z,21.80
2018-04-18T18:55:07.956Z,21.40
2018-04-18T18:57:36.869Z,21.30
2018-04-18T19:00:07.154Z,21.20
2018-04-18T19:02:35.747Z,21.10
2018-04-18T19:05:22.568Z,20.80
2018-04-18T19:08:14.413Z,20.70
2018-04-18T19:16:20.383Z,20.10
2018-04-18T19:18:49.338Z,20.10
2018-04-18T19:21:19.257Z,20.00
2018-04-18T19:23:47.567Z,19.90
2018-04-18T19:26:16.640Z,19.70
2018-04-18T19:28:45.765Z,19.30
2018-04-18T19:31:14.175Z,19.50
2018-04-18T19:33:42.945Z,19.40
2018-04-18T19:36:11.223Z,19.30
2018-04-18T19:38:39.534Z,19.20
2018-04-18T19:41:07.866Z,19.10
2018-04-18T19:43:36.310Z,19.00
2018-04-18T19:46:05.122Z,19.00
2018-04-18T19:48:34.348Z,18.70
2018-04-18T19:51:03.433Z,18.70
2018-04-18T19:53:32.501Z,18.60
2018-04-18T19:56:00.907Z,18.60
2018-04-18T20:01:10.859Z,18.30
2018-04-18T20:03:39.179Z,18.30
2018-04-18T20:06:25.108Z,18.20
2018-04-18T20:08:58.261Z,18.10
2018-04-18T20:11:26.579Z,18.00
2018-04-18T20:13:55.121Z,17.90
2018-04-18T20:16:28.328Z,17.80
2018-04-18T20:18:56.669Z,17.80
2018-04-18T20:21:24.990Z,17.70
2018-04-18T20:23:53.295Z,17.70
2018-04-18T20:26:22.763Z,17.60
2018-04-18T20:28:52.624Z,17.40
2018-04-18T20:31:21.154Z,17.40
2018-04-18T20:33:49.438Z,17.30
2018-04-18T20:36:17.749Z,17.20
2018-04-18T20:38:46.038Z,17.20
2018-04-18T20:41:14.434Z,17.10
2018-04-18T20:43:42.709Z,17.10
2018-04-18T20:46:11.298Z,17.00
2018-04-18T20:48:39.636Z,17.00
2018-04-18T20:51:07.981Z,16.90
2018-04-18T20:53:36.439Z,16.80
2018-04-18T20:56:06.125Z,16.80
2018-04-18T20:58:34.407Z,16.70
2018-04-18T21:01:02.727Z,16.60
2018-04-18T21:03:31.083Z,16.50
2018-04-18T21:05:59.404Z,16.50
2018-04-18T21:08:27.692Z,16.40
2018-04-18T21:10:55.994Z,16.40
2018-04-18T21:13:24.275Z,16.40
2018-04-18T21:15:52.569Z,16.30
2018-04-18T21:18:20.846Z,16.30
2018-04-18T21:20:49.148Z,16.20
2018-04-18T21:23:18.208Z,16.20
2018-04-18T21:25:47.477Z,16.20
2018-04-18T21:28:15.773Z,16.10
2018-04-18T21:30:44.098Z,16.10
2018-04-18T21:33:12.432Z,16.10
2018-04-18T21:35:40.765Z,16.00
2018-04-18T21:38:10.585Z,16.00
2018-04-18T21:50:05.207Z,15.80
2018-04-18T21:52:36.972Z,15.70
2018-04-18T21:55:12.894Z,15.60
2018-04-18T21:57:45.995Z,15.60
2018-04-18T22:03:32.871Z,15.50
2018-04-18T22:06:24.729Z,15.50
2018-04-18T22:09:16.483Z,15.50
2018-04-18T22:11:50.887Z,15.40
2018-04-18T22:14:36.979Z,15.30
2018-04-18T22:17:11.927Z,15.30
2018-04-18T22:19:40.250Z,15.20
2018-04-18T22:22:09.086Z,15.30
2018-04-18T22:24:37.390Z,15.20
2018-04-18T22:27:06.044Z,15.20
2018-04-18T22:29:34.435Z,15.10
2018-04-18T22:32:02.776Z,15.10
2018-04-18T22:34:32.211Z,15.10
2018-04-18T22:37:00.482Z,15.10
2018-04-18T22:39:28.789Z,15.00
2018-04-18T22:41:57.086Z,15.00
2018-04-18T22:44:25.450Z,15.00
2018-04-18T22:46:53.721Z,14.90
2018-04-18T22:49:21.995Z,14.90
2018-04-18T22:51:50.305Z,14.90
2018-04-18T22:54:18.591Z,14.80
2018-04-18T22:56:46.875Z,14.80
2018-04-18T22:59:15.932Z,14.70
2018-04-18T23:01:44.199Z,14.70
2018-04-18T23:04:12.519Z,14.70
2018-04-18T23:06:40.791Z,14.70
2018-04-18T23:09:09.070Z,14.60
2018-04-18T23:11:37.426Z,14.60
2018-04-18T23:14:05.706Z,14.60
2018-04-18T23:16:34.895Z,14.60
2018-04-18T23:19:03.190Z,14.50
2018-04-18T23:21:31.470Z,14.50
2018-04-18T23:23:59.770Z,14.50
2018-04-18T23:26:28.058Z,14.40
2018-04-18T23:28:57.083Z,14.30
2018-04-18T23:31:25.388Z,14.30
2018-04-18T23:33:53.660Z,14.30
2018-04-18T23:36:21.990Z,14.20
2018-04-18T23:38:50.272Z,14.20
2018-04-18T23:41:18.567Z,14.20
2018-04-18T23:43:46.880Z,14.20
2018-04-18T23:46:15.190Z,14.10
2018-04-18T23:48:44.222Z,14.10
2018-04-18T23:51:12.507Z,14.00
2018-04-18T23:53:40.768Z,14.00
2018-04-18T23:56:09.107Z,14.00
2018-04-18T23:58:38.232Z,13.90
